aviador You're here:

KPRN Decoded Metar

in _UNIDENTIFIED
Report Time2018-05-28 04:56:00
UTC Time2018-05-28 05:14:29
Flight Rules vfr VFR
Wind040° at 09 kt
W.Decomp.*RWY 32: 1.3 kt HW 8.9 kt RCW
W.Rank040° ranks 33
Current wind is above 040° avg. (5.2)
Visibility9999 m
Phenomena:Light Rain
Clouds:Few 007 Hf
Scattered 110 Hf
Expected CloudBase > 1,200 ft AGL from Temp-Dew spread
CeilingNone
Temp22°C (ISA +8)
Dew Point19°C (83% RH)
QNH1010 hPa
Density Alt1,768 ft
Elevation453 ft
Report Wrong Elevation
Raw Report
KPRN 280456Z AUTO 04009KT 9SM -RA FEW007 SCT110 22/19 A2982 RMK
AO2 SLP093 P0001 T02170189 TSNO=

Extra information for KPRN:More info

Metar Taf Metar & Taf Last 4 Metars F.Rules Stats Wind Profile Meteogram Temp Stats Metar ALERT Operation Metar Decoded Social comments